KCID/CID METAR and TAF weather

Enter ICAO airport designator
Station Type Date Time Source
KCID METAR 2018/07/16 23:52 UTC NOAA

KCID 162352Z 33007KT 10SM CLR 27/17 A3000 RMK AO2 SLP153 T02670167 10294 20267 58001


Station Type Date Time Source
KCID Decoded METAR 2018/07/16 23:52 UTC NOAA

CEDAR RAPIDS AIRPORT, IA, United States (KCID) 41-53N 91-43W
Jul 16, 2018 - 07:52 PM EDT / 2018.07.16 2352 UTC
Wind: from the NNW (330 degrees) at 8 MPH (7 KT):0
Visibility: 10 mile(s):0
Sky conditions: clear
Temperature: 80.1 F (26.7 C)
Dew Point: 62.1 F (16.7 C)
Relative Humidity: 54%
Pressure (altimeter): 30 in. Hg (1015 hPa)
Pressure tendency: 0.00 inches (0.1 hPa) lower than three hours ago
ob: KCID 162352Z 33007KT 10SM CLR 27/17 A3000 RMK AO2 SLP153 T02670167 10294 20267 58001
cycle: 0

Station Type Date Time Source
KCID TAF 2018/07/16 18:24 UTC NOAA

TAF KCID 161721Z 1618/1718 34008KT P6SM FEW200
FM170300 VRB04KT P6SM SKC


Example: see airport list